sensor_id;sensor_type;location;lat;lon;timestamp;temperature;humidity
49132;DHT22;35149;51.196;6.204;2023-12-07T00:01:59;4.60;76.50
49132;DHT22;35149;51.196;6.204;2023-12-07T00:04:25;4.50;76.50
49132;DHT22;35149;51.196;6.204;2023-12-07T00:06:52;4.50;76.60
49132;DHT22;35149;51.196;6.204;2023-12-07T00:09:19;4.50;77.20
49132;DHT22;35149;51.196;6.204;2023-12-07T00:11:47;4.50;76.60
49132;DHT22;35149;51.196;6.204;2023-12-07T00:14:17;4.40;76.60
49132;DHT22;35149;51.196;6.204;2023-12-07T00:16:43;4.40;76.50
49132;DHT22;35149;51.196;6.204;2023-12-07T00:19:12;4.40;76.40
49132;DHT22;35149;51.196;6.204;2023-12-07T00:21:40;4.30;76.30
49132;DHT22;35149;51.196;6.204;2023-12-07T00:24:06;4.30;76.30
49132;DHT22;35149;51.196;6.204;2023-12-07T00:26:33;4.30;76.30
49132;DHT22;35149;51.196;6.204;2023-12-07T00:29:02;4.30;76.30
49132;DHT22;35149;51.196;6.204;2023-12-07T00:31:31;4.20;76.40
49132;DHT22;35149;51.196;6.204;2023-12-07T00:33:58;4.20;76.30
49132;DHT22;35149;51.196;6.204;2023-12-07T00:36:28;4.20;77.00
49132;DHT22;35149;51.196;6.204;2023-12-07T00:38:55;4.10;76.30
49132;DHT22;35149;51.196;6.204;2023-12-07T00:41:27;4.10;76.40
49132;DHT22;35149;51.196;6.204;2023-12-07T00:43:55;4.10;76.30
49132;DHT22;35149;51.196;6.204;2023-12-07T00:46:22;4.00;76.30
49132;DHT22;35149;51.196;6.204;2023-12-07T00:48:57;4.00;76.40
49132;DHT22;35149;51.196;6.204;2023-12-07T00:51:26;4.00;76.40
49132;DHT22;35149;51.196;6.204;2023-12-07T00:53:54;4.00;76.40
49132;DHT22;35149;51.196;6.204;2023-12-07T00:56:23;4.00;76.40
49132;DHT22;35149;51.196;6.204;2023-12-07T00:58:51;4.00;76.40
49132;DHT22;35149;51.196;6.204;2023-12-07T01:01:24;4.00;76.40
49132;DHT22;35149;51.196;6.204;2023-12-07T01:03:51;3.90;76.30
49132;DHT22;35149;51.196;6.204;2023-12-07T01:06:20;3.90;76.20
49132;DHT22;35149;51.196;6.204;2023-12-07T01:08:48;3.90;76.20
49132;DHT22;35149;51.196;6.204;2023-12-07T01:11:17;3.90;76.10
49132;DHT22;35149;51.196;6.204;2023-12-07T01:13:46;3.90;76.10
49132;DHT22;35149;51.196;6.204;2023-12-07T01:16:15;3.80;76.10
49132;DHT22;35149;51.196;6.204;2023-12-07T01:18:45;3.80;76.10
49132;DHT22;35149;51.196;6.204;2023-12-07T01:21:14;3.80;76.00
49132;DHT22;35149;51.196;6.204;2023-12-07T01:23:43;3.70;76.00
49132;DHT22;35149;51.196;6.204;2023-12-07T01:26:16;3.80;76.20
49132;DHT22;35149;51.196;6.204;2023-12-07T01:28:42;3.70;76.10
49132;DHT22;35149;51.196;6.204;2023-12-07T01:31:10;3.70;75.70
49132;DHT22;35149;51.196;6.204;2023-12-07T01:33:37;3.70;75.70
49132;DHT22;35149;51.196;6.204;2023-12-07T01:36:04;3.60;75.80
49132;DHT22;35149;51.196;6.204;2023-12-07T01:38:32;3.60;75.90
49132;DHT22;35149;51.196;6.204;2023-12-07T01:40:58;3.60;75.90
49132;DHT22;35149;51.196;6.204;2023-12-07T01:43:28;3.50;75.90
49132;DHT22;35149;51.196;6.204;2023-12-07T01:45:57;3.50;75.90
49132;DHT22;35149;51.196;6.204;2023-12-07T01:48:26;3.50;76.00
49132;DHT22;35149;51.196;6.204;2023-12-07T01:50:57;3.50;76.00
49132;DHT22;35149;51.196;6.204;2023-12-07T01:53:28;3.50;76.00
49132;DHT22;35149;51.196;6.204;2023-12-07T01:55:55;3.50;76.60
49132;DHT22;35149;51.196;6.204;2023-12-07T01:58:22;3.50;76.00
49132;DHT22;35149;51.196;6.204;2023-12-07T02:00:55;3.40;76.00
49132;DHT22;35149;51.196;6.204;2023-12-07T02:03:22;3.40;76.00
49132;DHT22;35149;51.196;6.204;2023-12-07T02:05:53;3.40;76.00
49132;DHT22;35149;51.196;6.204;2023-12-07T02:08:22;3.40;76.00
49132;DHT22;35149;51.196;6.204;2023-12-07T02:10:49;3.40;76.00
49132;DHT22;35149;51.196;6.204;2023-12-07T02:13:16;3.40;76.00
49132;DHT22;35149;51.196;6.204;2023-12-07T02:15:45;3.40;76.00
49132;DHT22;35149;51.196;6.204;2023-12-07T02:18:33;3.40;76.00
49132;DHT22;35149;51.196;6.204;2023-12-07T02:21:13;3.40;76.00
49132;DHT22;35149;51.196;6.204;2023-12-07T02:23:44;3.40;75.90
49132;DHT22;35149;51.196;6.204;2023-12-07T02:26:52;3.40;75.80
49132;DHT22;35149;51.196;6.204;2023-12-07T02:29:21;3.40;75.70
49132;DHT22;35149;51.196;6.204;2023-12-07T02:31:48;3.40;75.90
49132;DHT22;35149;51.196;6.204;2023-12-07T02:34:17;3.40;76.20
49132;DHT22;35149;51.196;6.204;2023-12-07T02:36:48;3.40;76.70
49132;DHT22;35149;51.196;6.204;2023-12-07T02:39:15;3.40;77.40
49132;DHT22;35149;51.196;6.204;2023-12-07T02:41:45;3.50;78.10
49132;DHT22;35149;51.196;6.204;2023-12-07T02:44:13;3.60;78.70
49132;DHT22;35149;51.196;6.204;2023-12-07T02:46:40;3.70;79.20
49132;DHT22;35149;51.196;6.204;2023-12-07T02:49:07;3.80;79.40
49132;DHT22;35149;51.196;6.204;2023-12-07T02:51:36;3.90;79.70
49132;DHT22;35149;51.196;6.204;2023-12-07T02:54:05;4.00;79.80
49132;DHT22;35149;51.196;6.204;2023-12-07T02:56:32;4.20;79.80
49132;DHT22;35149;51.196;6.204;2023-12-07T02:58:58;4.30;79.80
49132;DHT22;35149;51.196;6.204;2023-12-07T03:01:28;4.40;79.70
49132;DHT22;35149;51.196;6.204;2023-12-07T03:03:57;4.40;79.70
49132;DHT22;35149;51.196;6.204;2023-12-07T03:06:24;4.50;79.70
49132;DHT22;35149;51.196;6.204;2023-12-07T03:08:52;4.60;79.60
49132;DHT22;35149;51.196;6.204;2023-12-07T03:11:19;4.70;79.50
49132;DHT22;35149;51.196;6.204;2023-12-07T03:13:46;4.70;79.40
49132;DHT22;35149;51.196;6.204;2023-12-07T03:16:13;4.80;79.40
49132;DHT22;35149;51.196;6.204;2023-12-07T03:18:40;4.80;79.30
49132;DHT22;35149;51.196;6.204;2023-12-07T03:21:09;4.90;79.30
49132;DHT22;35149;51.196;6.204;2023-12-07T03:23:35;4.90;79.10
49132;DHT22;35149;51.196;6.204;2023-12-07T03:26:02;4.90;79.00
49132;DHT22;35149;51.196;6.204;2023-12-07T03:28:33;5.00;79.00
49132;DHT22;35149;51.196;6.204;2023-12-07T03:31:00;5.00;79.00
49132;DHT22;35149;51.196;6.204;2023-12-07T03:33:27;5.00;78.90
49132;DHT22;35149;51.196;6.204;2023-12-07T03:35:57;5.00;78.80
49132;DHT22;35149;51.196;6.204;2023-12-07T03:38:23;5.10;78.80
49132;DHT22;35149;51.196;6.204;2023-12-07T03:40:50;5.10;78.80
49132;DHT22;35149;51.196;6.204;2023-12-07T03:43:19;5.10;78.70
49132;DHT22;35149;51.196;6.204;2023-12-07T03:45:49;5.10;78.70
49132;DHT22;35149;51.196;6.204;2023-12-07T03:48:18;5.10;78.60
49132;DHT22;35149;51.196;6.204;2023-12-07T03:50:45;5.10;78.70
49132;DHT22;35149;51.196;6.204;2023-12-07T03:53:15;5.10;78.70
49132;DHT22;35149;51.196;6.204;2023-12-07T03:55:43;5.10;78.70
49132;DHT22;35149;51.196;6.204;2023-12-07T03:58:11;5.20;78.80
49132;DHT22;35149;51.196;6.204;2023-12-07T04:00:42;5.20;78.80
49132;DHT22;35149;51.196;6.204;2023-12-07T04:03:09;5.20;78.80
49132;DHT22;35149;51.196;6.204;2023-12-07T04:05:36;5.20;78.90
49132;DHT22;35149;51.196;6.204;2023-12-07T04:08:04;5.20;78.90
49132;DHT22;35149;51.196;6.204;2023-12-07T04:10:41;5.20;78.90
49132;DHT22;35149;51.196;6.204;2023-12-07T04:13:08;5.30;79.60
49132;DHT22;35149;51.196;6.204;2023-12-07T04:15:35;5.30;78.90
49132;DHT22;35149;51.196;6.204;2023-12-07T04:18:01;5.30;79.00
49132;DHT22;35149;51.196;6.204;2023-12-07T04:20:30;5.30;78.90
49132;DHT22;35149;51.196;6.204;2023-12-07T04:23:00;5.30;78.90
49132;DHT22;35149;51.196;6.204;2023-12-07T04:25:29;5.30;78.90
49132;DHT22;35149;51.196;6.204;2023-12-07T04:27:57;5.40;78.80
49132;DHT22;35149;51.196;6.204;2023-12-07T04:30:24;5.30;78.70
49132;DHT22;35149;51.196;6.204;2023-12-07T04:32:55;5.30;78.80
49132;DHT22;35149;51.196;6.204;2023-12-07T04:35:22;5.40;78.90
49132;DHT22;35149;51.196;6.204;2023-12-07T04:37:51;5.40;78.90
49132;DHT22;35149;51.196;6.204;2023-12-07T04:40:18;5.40;78.80
49132;DHT22;35149;51.196;6.204;2023-12-07T04:42:45;5.40;78.90
49132;DHT22;35149;51.196;6.204;2023-12-07T04:45:11;5.40;78.90
49132;DHT22;35149;51.196;6.204;2023-12-07T04:47:40;5.40;78.80
49132;DHT22;35149;51.196;6.204;2023-12-07T04:50:08;5.40;78.80
49132;DHT22;35149;51.196;6.204;2023-12-07T04:52:36;5.40;78.70
49132;DHT22;35149;51.196;6.204;2023-12-07T04:55:03;5.40;78.70
49132;DHT22;35149;51.196;6.204;2023-12-07T04:57:30;5.50;78.80
49132;DHT22;35149;51.196;6.204;2023-12-07T05:00:04;5.50;78.80
49132;DHT22;35149;51.196;6.204;2023-12-07T05:02:40;5.50;78.80
49132;DHT22;35149;51.196;6.204;2023-12-07T05:05:09;5.50;78.80
49132;DHT22;35149;51.196;6.204;2023-12-07T05:07:40;5.50;78.80
49132;DHT22;35149;51.196;6.204;2023-12-07T05:10:09;5.50;78.80
49132;DHT22;35149;51.196;6.204;2023-12-07T05:12:36;5.50;78.80
49132;DHT22;35149;51.196;6.204;2023-12-07T05:15:04;5.50;78.90
49132;DHT22;35149;51.196;6.204;2023-12-07T05:17:32;5.50;78.90
49132;DHT22;35149;51.196;6.204;2023-12-07T05:19:59;5.60;79.00
49132;DHT22;35149;51.196;6.204;2023-12-07T05:22:25;5.60;78.90
49132;DHT22;35149;51.196;6.204;2023-12-07T05:24:55;5.60;78.80
49132;DHT22;35149;51.196;6.204;2023-12-07T05:27:22;5.60;78.80
49132;DHT22;35149;51.196;6.204;2023-12-07T05:29:49;5.60;78.80
49132;DHT22;35149;51.196;6.204;2023-12-07T05:32:15;5.60;78.70
49132;DHT22;35149;51.196;6.204;2023-12-07T05:34:42;5.60;78.70
49132;DHT22;35149;51.196;6.204;2023-12-07T05:37:09;5.60;78.60
49132;DHT22;35149;51.196;6.204;2023-12-07T05:39:36;5.60;78.70
49132;DHT22;35149;51.196;6.204;2023-12-07T05:42:03;5.70;78.90
49132;DHT22;35149;51.196;6.204;2023-12-07T05:44:33;5.70;78.90
49132;DHT22;35149;51.196;6.204;2023-12-07T05:47:00;5.70;78.80
49132;DHT22;35149;51.196;6.204;2023-12-07T05:49:26;5.70;78.80
49132;DHT22;35149;51.196;6.204;2023-12-07T05:51:54;5.70;78.50
49132;DHT22;35149;51.196;6.204;2023-12-07T05:54:21;5.70;78.40
49132;DHT22;35149;51.196;6.204;2023-12-07T05:56:48;5.70;78.40
49132;DHT22;35149;51.196;6.204;2023-12-07T05:59:16;5.80;78.60
49132;DHT22;35149;51.196;6.204;2023-12-07T06:01:42;5.80;78.40
49132;DHT22;35149;51.196;6.204;2023-12-07T06:04:09;5.80;78.30
49132;DHT22;35149;51.196;6.204;2023-12-07T06:06:37;5.80;78.20
49132;DHT22;35149;51.196;6.204;2023-12-07T06:09:03;5.80;78.30
49132;DHT22;35149;51.196;6.204;2023-12-07T06:11:32;5.80;78.30
49132;DHT22;35149;51.196;6.204;2023-12-07T06:14:00;5.80;78.30
49132;DHT22;35149;51.196;6.204;2023-12-07T06:16:28;5.80;79.00
49132;DHT22;35149;51.196;6.204;2023-12-07T06:18:55;5.80;78.30
49132;DHT22;35149;51.196;6.204;2023-12-07T06:21:22;5.80;78.30
49132;DHT22;35149;51.196;6.204;2023-12-07T06:23:49;5.80;78.30
49132;DHT22;35149;51.196;6.204;2023-12-07T06:26:16;5.80;78.30
49132;DHT22;35149;51.196;6.204;2023-12-07T06:28:43;5.80;78.20
49132;DHT22;35149;51.196;6.204;2023-12-07T06:31:11;5.80;78.10
49132;DHT22;35149;51.196;6.204;2023-12-07T06:33:38;5.80;78.10
49132;DHT22;35149;51.196;6.204;2023-12-07T06:36:06;5.90;78.10
49132;DHT22;35149;51.196;6.204;2023-12-07T06:38:33;5.90;78.10
49132;DHT22;35149;51.196;6.204;2023-12-07T06:41:00;5.90;78.00
49132;DHT22;35149;51.196;6.204;2023-12-07T06:43:27;5.90;78.00
49132;DHT22;35149;51.196;6.204;2023-12-07T06:45:53;5.90;78.00
49132;DHT22;35149;51.196;6.204;2023-12-07T06:48:20;5.90;78.00
49132;DHT22;35149;51.196;6.204;2023-12-07T06:50:47;5.90;78.00
49132;DHT22;35149;51.196;6.204;2023-12-07T06:53:14;5.90;77.90
49132;DHT22;35149;51.196;6.204;2023-12-07T06:55:41;5.90;77.70
49132;DHT22;35149;51.196;6.204;2023-12-07T06:58:11;5.90;77.70
49132;DHT22;35149;51.196;6.204;2023-12-07T07:00:38;5.90;77.60
49132;DHT22;35149;51.196;6.204;2023-12-07T07:03:05;5.90;77.60
49132;DHT22;35149;51.196;6.204;2023-12-07T07:05:33;5.90;77.60
49132;DHT22;35149;51.196;6.204;2023-12-07T07:07:59;5.90;77.60
49132;DHT22;35149;51.196;6.204;2023-12-07T07:10:26;5.90;77.60
49132;DHT22;35149;51.196;6.204;2023-12-07T07:12:53;5.90;77.60
49132;DHT22;35149;51.196;6.204;2023-12-07T07:15:20;5.90;77.60
49132;DHT22;35149;51.196;6.204;2023-12-07T07:17:47;5.90;77.60
49132;DHT22;35149;51.196;6.204;2023-12-07T07:20:14;5.90;77.70
49132;DHT22;35149;51.196;6.204;2023-12-07T07:22:41;5.90;77.60
49132;DHT22;35149;51.196;6.204;2023-12-07T07:25:08;5.90;77.60
49132;DHT22;35149;51.196;6.204;2023-12-07T07:27:35;5.90;77.60
49132;DHT22;35149;51.196;6.204;2023-12-07T07:30:02;5.90;77.60
49132;DHT22;35149;51.196;6.204;2023-12-07T07:32:31;5.90;77.60
49132;DHT22;35149;51.196;6.204;2023-12-07T07:34:57;5.90;77.70
49132;DHT22;35149;51.196;6.204;2023-12-07T07:37:24;5.90;77.60
49132;DHT22;35149;51.196;6.204;2023-12-07T07:39:51;5.90;77.70
49132;DHT22;35149;51.196;6.204;2023-12-07T07:42:18;5.90;77.70
49132;DHT22;35149;51.196;6.204;2023-12-07T07:44:45;6.00;77.80
49132;DHT22;35149;51.196;6.204;2023-12-07T07:47:12;6.00;77.80
49132;DHT22;35149;51.196;6.204;2023-12-07T07:49:38;6.00;77.80
49132;DHT22;35149;51.196;6.204;2023-12-07T07:52:05;6.00;77.80
49132;DHT22;35149;51.196;6.204;2023-12-07T07:54:32;6.00;77.80
49132;DHT22;35149;51.196;6.204;2023-12-07T07:56:59;6.00;77.80
49132;DHT22;35149;51.196;6.204;2023-12-07T07:59:25;6.10;77.80
49132;DHT22;35149;51.196;6.204;2023-12-07T08:01:52;6.10;77.70
49132;DHT22;35149;51.196;6.204;2023-12-07T08:04:19;6.10;77.60
49132;DHT22;35149;51.196;6.204;2023-12-07T08:06:46;6.10;77.60
49132;DHT22;35149;51.196;6.204;2023-12-07T08:09:12;6.10;77.60
49132;DHT22;35149;51.196;6.204;2023-12-07T08:11:39;6.10;77.60
49132;DHT22;35149;51.196;6.204;2023-12-07T08:14:06;6.20;77.70
49132;DHT22;35149;51.196;6.204;2023-12-07T08:16:33;6.20;77.60
49132;DHT22;35149;51.196;6.204;2023-12-07T08:18:59;6.20;77.50
49132;DHT22;35149;51.196;6.204;2023-12-07T08:21:26;6.20;77.40
49132;DHT22;35149;51.196;6.204;2023-12-07T08:23:57;6.20;77.30
49132;DHT22;35149;51.196;6.204;2023-12-07T08:26:23;6.20;77.20
49132;DHT22;35149;51.196;6.204;2023-12-07T08:28:50;6.20;77.20
49132;DHT22;35149;51.196;6.204;2023-12-07T08:31:20;6.20;77.20
49132;DHT22;35149;51.196;6.204;2023-12-07T08:33:47;6.20;77.20
49132;DHT22;35149;51.196;6.204;2023-12-07T08:36:14;6.20;77.10
49132;DHT22;35149;51.196;6.204;2023-12-07T08:38:42;6.20;77.10
49132;DHT22;35149;51.196;6.204;2023-12-07T08:41:09;6.20;76.90
49132;DHT22;35149;51.196;6.204;2023-12-07T08:43:36;6.20;76.60
49132;DHT22;35149;51.196;6.204;2023-12-07T08:46:02;6.20;76.50
49132;DHT22;35149;51.196;6.204;2023-12-07T08:48:30;6.20;76.50
49132;DHT22;35149;51.196;6.204;2023-12-07T08:50:57;6.20;76.50
49132;DHT22;35149;51.196;6.204;2023-12-07T08:53:24;6.10;76.50
49132;DHT22;35149;51.196;6.204;2023-12-07T08:55:51;6.10;76.50
49132;DHT22;35149;51.196;6.204;2023-12-07T08:58:18;6.10;76.40
49132;DHT22;35149;51.196;6.204;2023-12-07T09:00:45;6.10;76.40
49132;DHT22;35149;51.196;6.204;2023-12-07T09:03:11;6.10;76.50
49132;DHT22;35149;51.196;6.204;2023-12-07T09:05:38;6.00;76.40
49132;DHT22;35149;51.196;6.204;2023-12-07T09:08:05;6.00;76.50
49132;DHT22;35149;51.196;6.204;2023-12-07T09:10:33;6.00;76.40
49132;DHT22;35149;51.196;6.204;2023-12-07T09:12:59;6.00;77.10
49132;DHT22;35149;51.196;6.204;2023-12-07T09:15:26;6.00;76.50
49132;DHT22;35149;51.196;6.204;2023-12-07T09:17:53;6.00;76.60
49132;DHT22;35149;51.196;6.204;2023-12-07T09:20:21;6.00;76.60
49132;DHT22;35149;51.196;6.204;2023-12-07T09:22:47;6.00;76.60
49132;DHT22;35149;51.196;6.204;2023-12-07T09:25:16;6.00;76.60
49132;DHT22;35149;51.196;6.204;2023-12-07T09:27:44;6.00;76.70
49132;DHT22;35149;51.196;6.204;2023-12-07T09:30:11;6.00;76.70
49132;DHT22;35149;51.196;6.204;2023-12-07T09:32:42;6.10;76.80
49132;DHT22;35149;51.196;6.204;2023-12-07T09:35:11;6.10;76.70
49132;DHT22;35149;51.196;6.204;2023-12-07T09:37:42;6.10;76.80
49132;DHT22;35149;51.196;6.204;2023-12-07T09:40:14;6.10;77.00
49132;DHT22;35149;51.196;6.204;2023-12-07T09:42:43;6.10;77.00
49132;DHT22;35149;51.196;6.204;2023-12-07T09:45:10;6.20;77.10
49132;DHT22;35149;51.196;6.204;2023-12-07T09:47:37;6.20;77.10
49132;DHT22;35149;51.196;6.204;2023-12-07T09:50:09;6.20;77.10
49132;DHT22;35149;51.196;6.204;2023-12-07T09:52:36;6.30;77.20
49132;DHT22;35149;51.196;6.204;2023-12-07T09:55:03;6.30;77.10
49132;DHT22;35149;51.196;6.204;2023-12-07T09:57:31;6.40;77.10
49132;DHT22;35149;51.196;6.204;2023-12-07T09:59:58;6.40;77.10
49132;DHT22;35149;51.196;6.204;2023-12-07T10:02:27;6.40;77.10
49132;DHT22;35149;51.196;6.204;2023-12-07T10:05:07;6.50;77.10
49132;DHT22;35149;51.196;6.204;2023-12-07T10:07:36;6.50;76.90
49132;DHT22;35149;51.196;6.204;2023-12-07T10:10:04;6.60;76.80
49132;DHT22;35149;51.196;6.204;2023-12-07T10:12:32;6.60;76.70
49132;DHT22;35149;51.196;6.204;2023-12-07T10:15:01;6.70;76.60
49132;DHT22;35149;51.196;6.204;2023-12-07T10:20:18;6.80;76.30
49132;DHT22;35149;51.196;6.204;2023-12-07T10:22:46;6.80;76.40
49132;DHT22;35149;51.196;6.204;2023-12-07T10:25:13;6.80;76.40
49132;DHT22;35149;51.196;6.204;2023-12-07T10:27:41;6.90;76.50
49132;DHT22;35149;51.196;6.204;2023-12-07T10:30:10;6.90;76.40
49132;DHT22;35149;51.196;6.204;2023-12-07T10:32:39;7.00;76.40
49132;DHT22;35149;51.196;6.204;2023-12-07T10:35:07;7.10;76.50
49132;DHT22;35149;51.196;6.204;2023-12-07T10:37:35;7.10;76.40
49132;DHT22;35149;51.196;6.204;2023-12-07T10:40:02;7.20;76.10
49132;DHT22;35149;51.196;6.204;2023-12-07T10:42:33;7.20;75.80
49132;DHT22;35149;51.196;6.204;2023-12-07T10:45:03;7.20;75.70
49132;DHT22;35149;51.196;6.204;2023-12-07T10:47:36;7.20;75.50
49132;DHT22;35149;51.196;6.204;2023-12-07T10:50:07;7.20;75.30
49132;DHT22;35149;51.196;6.204;2023-12-07T10:52:54;7.20;75.00
49132;DHT22;35149;51.196;6.204;2023-12-07T10:55:32;7.20;74.60
49132;DHT22;35149;51.196;6.204;2023-12-07T10:58:01;7.20;74.40
49132;DHT22;35149;51.196;6.204;2023-12-07T11:00:29;7.10;74.40
49132;DHT22;35149;51.196;6.204;2023-12-07T11:03:10;7.10;74.30
49132;DHT22;35149;51.196;6.204;2023-12-07T11:05:38;7.00;74.20
49132;DHT22;35149;51.196;6.204;2023-12-07T11:08:09;7.00;74.10
49132;DHT22;35149;51.196;6.204;2023-12-07T11:10:48;6.90;74.10
49132;DHT22;35149;51.196;6.204;2023-12-07T11:13:32;6.90;74.30
49132;DHT22;35149;51.196;6.204;2023-12-07T11:16:00;6.80;74.40
49132;DHT22;35149;51.196;6.204;2023-12-07T11:18:28;6.80;74.60
49132;DHT22;35149;51.196;6.204;2023-12-07T11:20:56;6.70;74.80
49132;DHT22;35149;51.196;6.204;2023-12-07T11:23:23;6.70;75.00
49132;DHT22;35149;51.196;6.204;2023-12-07T11:25:52;6.70;75.20
49132;DHT22;35149;51.196;6.204;2023-12-07T11:28:34;6.70;75.30
49132;DHT22;35149;51.196;6.204;2023-12-07T11:31:02;6.60;75.50
49132;DHT22;35149;51.196;6.204;2023-12-07T11:33:29;6.60;75.50
49132;DHT22;35149;51.196;6.204;2023-12-07T11:38:30;6.60;75.70
49132;DHT22;35149;51.196;6.204;2023-12-07T11:40:57;6.60;75.60
49132;DHT22;35149;51.196;6.204;2023-12-07T11:46:00;6.60;75.50
49132;DHT22;35149;51.196;6.204;2023-12-07T11:48:26;6.60;75.60
49132;DHT22;35149;51.196;6.204;2023-12-07T11:50:54;6.60;75.80
49132;DHT22;35149;51.196;6.204;2023-12-07T11:53:23;6.60;75.80
49132;DHT22;35149;51.196;6.204;2023-12-07T11:55:52;6.60;76.00
49132;DHT22;35149;51.196;6.204;2023-12-07T11:58:19;6.70;76.00
49132;DHT22;35149;51.196;6.204;2023-12-07T12:00:47;6.70;75.90
49132;DHT22;35149;51.196;6.204;2023-12-07T12:03:14;6.70;75.90
49132;DHT22;35149;51.196;6.204;2023-12-07T12:05:42;6.70;75.90
49132;DHT22;35149;51.196;6.204;2023-12-07T12:08:10;6.80;75.90
49132;DHT22;35149;51.196;6.204;2023-12-07T12:10:37;6.80;75.90
49132;DHT22;35149;51.196;6.204;2023-12-07T12:13:04;6.80;76.50
49132;DHT22;35149;51.196;6.204;2023-12-07T12:15:32;6.90;75.80
49132;DHT22;35149;51.196;6.204;2023-12-07T12:17:59;6.90;75.70
49132;DHT22;35149;51.196;6.204;2023-12-07T12:20:27;6.90;75.70
49132;DHT22;35149;51.196;6.204;2023-12-07T12:22:54;7.00;76.40
49132;DHT22;35149;51.196;6.204;2023-12-07T12:25:26;7.00;75.70
49132;DHT22;35149;51.196;6.204;2023-12-07T12:27:59;7.00;75.70
49132;DHT22;35149;51.196;6.204;2023-12-07T12:30:30;7.10;75.80
49132;DHT22;35149;51.196;6.204;2023-12-07T12:32:58;7.10;75.70
49132;DHT22;35149;51.196;6.204;2023-12-07T12:35:26;7.10;75.50
49132;DHT22;35149;51.196;6.204;2023-12-07T12:37:54;7.20;75.40
49132;DHT22;35149;51.196;6.204;2023-12-07T12:40:23;7.20;75.40
49132;DHT22;35149;51.196;6.204;2023-12-07T12:42:51;7.20;75.30
49132;DHT22;35149;51.196;6.204;2023-12-07T12:45:23;7.20;75.20
49132;DHT22;35149;51.196;6.204;2023-12-07T12:47:52;7.20;75.20
49132;DHT22;35149;51.196;6.204;2023-12-07T12:50:38;7.30;75.10
49132;DHT22;35149;51.196;6.204;2023-12-07T12:53:06;7.30;74.90
49132;DHT22;35149;51.196;6.204;2023-12-07T12:55:36;7.30;74.90
49132;DHT22;35149;51.196;6.204;2023-12-07T12:58:05;7.30;74.70
49132;DHT22;35149;51.196;6.204;2023-12-07T13:00:34;7.30;74.70
49132;DHT22;35149;51.196;6.204;2023-12-07T13:03:04;7.30;74.70
49132;DHT22;35149;51.196;6.204;2023-12-07T13:05:31;7.30;74.70
49132;DHT22;35149;51.196;6.204;2023-12-07T13:08:02;7.30;74.70
49132;DHT22;35149;51.196;6.204;2023-12-07T13:10:40;7.30;74.60
49132;DHT22;35149;51.196;6.204;2023-12-07T13:13:08;7.40;74.50
49132;DHT22;35149;51.196;6.204;2023-12-07T13:15:34;7.40;74.50
49132;DHT22;35149;51.196;6.204;2023-12-07T13:18:01;7.40;74.40
49132;DHT22;35149;51.196;6.204;2023-12-07T13:20:33;7.40;74.30
49132;DHT22;35149;51.196;6.204;2023-12-07T13:23:19;7.50;74.20
49132;DHT22;35149;51.196;6.204;2023-12-07T13:25:47;7.50;74.10
49132;DHT22;35149;51.196;6.204;2023-12-07T13:28:14;7.50;74.10
49132;DHT22;35149;51.196;6.204;2023-12-07T13:30:40;7.50;73.90
49132;DHT22;35149;51.196;6.204;2023-12-07T13:33:07;7.50;73.70
49132;DHT22;35149;51.196;6.204;2023-12-07T13:35:51;7.50;73.50
49132;DHT22;35149;51.196;6.204;2023-12-07T13:38:18;7.50;73.50
49132;DHT22;35149;51.196;6.204;2023-12-07T13:40:46;7.50;73.50
49132;DHT22;35149;51.196;6.204;2023-12-07T13:43:13;7.50;73.50
49132;DHT22;35149;51.196;6.204;2023-12-07T13:45:43;7.50;73.50
49132;DHT22;35149;51.196;6.204;2023-12-07T13:48:10;7.50;73.40
49132;DHT22;35149;51.196;6.204;2023-12-07T13:50:40;7.50;73.40
49132;DHT22;35149;51.196;6.204;2023-12-07T13:53:06;7.50;73.50
49132;DHT22;35149;51.196;6.204;2023-12-07T13:55:39;7.40;73.50
49132;DHT22;35149;51.196;6.204;2023-12-07T13:58:06;7.50;73.50
49132;DHT22;35149;51.196;6.204;2023-12-07T14:00:33;7.50;73.50
49132;DHT22;35149;51.196;6.204;2023-12-07T14:03:00;7.50;73.40
49132;DHT22;35149;51.196;6.204;2023-12-07T14:05:27;7.50;73.40
49132;DHT22;35149;51.196;6.204;2023-12-07T14:07:54;7.50;73.50
49132;DHT22;35149;51.196;6.204;2023-12-07T14:10:21;7.50;73.60
49132;DHT22;35149;51.196;6.204;2023-12-07T14:12:48;7.50;73.50
49132;DHT22;35149;51.196;6.204;2023-12-07T14:15:15;7.50;73.30
49132;DHT22;35149;51.196;6.204;2023-12-07T14:17:51;7.50;73.30
49132;DHT22;35149;51.196;6.204;2023-12-07T14:20:22;7.50;73.30
49132;DHT22;35149;51.196;6.204;2023-12-07T14:23:10;7.50;73.20
49132;DHT22;35149;51.196;6.204;2023-12-07T14:25:37;7.50;73.20
49132;DHT22;35149;51.196;6.204;2023-12-07T14:28:06;7.40;73.10
49132;DHT22;35149;51.196;6.204;2023-12-07T14:30:33;7.50;73.00
49132;DHT22;35149;51.196;6.204;2023-12-07T14:33:01;7.40;73.00
49132;DHT22;35149;51.196;6.204;2023-12-07T14:35:28;7.40;72.80
49132;DHT22;35149;51.196;6.204;2023-12-07T14:37:55;7.40;72.70
49132;DHT22;35149;51.196;6.204;2023-12-07T14:40:22;7.40;72.80
49132;DHT22;35149;51.196;6.204;2023-12-07T14:42:49;7.40;72.70
49132;DHT22;35149;51.196;6.204;2023-12-07T14:45:15;7.30;72.70
49132;DHT22;35149;51.196;6.204;2023-12-07T14:47:42;7.30;72.70
49132;DHT22;35149;51.196;6.204;2023-12-07T14:50:10;7.30;72.70
49132;DHT22;35149;51.196;6.204;2023-12-07T14:52:36;7.20;72.60
49132;DHT22;35149;51.196;6.204;2023-12-07T14:55:05;7.20;72.70
49132;DHT22;35149;51.196;6.204;2023-12-07T14:57:32;7.20;72.50
49132;DHT22;35149;51.196;6.204;2023-12-07T14:59:58;7.10;72.40
49132;DHT22;35149;51.196;6.204;2023-12-07T15:02:25;7.10;72.50
49132;DHT22;35149;51.196;6.204;2023-12-07T15:04:53;7.10;72.50
49132;DHT22;35149;51.196;6.204;2023-12-07T15:07:20;7.00;72.50
49132;DHT22;35149;51.196;6.204;2023-12-07T15:09:46;6.90;72.50
49132;DHT22;35149;51.196;6.204;2023-12-07T15:12:16;6.90;72.60
49132;DHT22;35149;51.196;6.204;2023-12-07T15:14:45;6.90;72.70
49132;DHT22;35149;51.196;6.204;2023-12-07T15:17:12;6.80;72.60
49132;DHT22;35149;51.196;6.204;2023-12-07T15:19:38;6.70;72.70
49132;DHT22;35149;51.196;6.204;2023-12-07T15:22:08;6.70;72.70
49132;DHT22;35149;51.196;6.204;2023-12-07T15:24:35;6.60;72.70
49132;DHT22;35149;51.196;6.204;2023-12-07T15:27:04;6.60;72.80
49132;DHT22;35149;51.196;6.204;2023-12-07T15:29:32;6.50;72.80
49132;DHT22;35149;51.196;6.204;2023-12-07T15:32:00;6.50;72.90
49132;DHT22;35149;51.196;6.204;2023-12-07T15:34:27;6.40;72.90
49132;DHT22;35149;51.196;6.204;2023-12-07T15:37:05;6.40;73.00
49132;DHT22;35149;51.196;6.204;2023-12-07T15:39:31;6.30;72.80
49132;DHT22;35149;51.196;6.204;2023-12-07T15:41:58;6.30;72.80
49132;DHT22;35149;51.196;6.204;2023-12-07T15:44:26;6.20;72.90
49132;DHT22;35149;51.196;6.204;2023-12-07T15:46:56;6.20;73.00
49132;DHT22;35149;51.196;6.204;2023-12-07T15:49:24;6.10;73.00
49132;DHT22;35149;51.196;6.204;2023-12-07T15:51:51;6.10;73.10
49132;DHT22;35149;51.196;6.204;2023-12-07T15:54:20;6.00;73.20
49132;DHT22;35149;51.196;6.204;2023-12-07T15:57:03;6.00;73.50
49132;DHT22;35149;51.196;6.204;2023-12-07T15:59:30;5.90;73.40
49132;DHT22;35149;51.196;6.204;2023-12-07T16:01:57;5.90;73.50